Classifiche di sempre
Migliori tempi personali validi di team tra tutti gli eventi e le stagioni. Ogni team compare una sola volta per divisione.
Cerca per nome e apri la pagina in cui è classificato questo record di divisione.
137,494 team in classifica
| Pos. | Pos. AG | Team | Nazionalità | Categoria età | TempoMiglior tempo | Distacco |
|---|---|---|---|---|---|---|
| 129326 | #41000 | Alyssa Naldoza & Richie PilaresPHI · W 30-34 · AG #41000 | PHI | W 30-34 | 1:53:40 | +60:19 |
| 129327 | -- | Teresa Mahlstede & Andrea SernaUSA · W WU29 | USA | W WU29 | 1:53:40 | +60:19 |
| 129328 | -- | Tiffany SMITH & Paulina PAGLIUGHIUSA · W WU29 | USA | W WU29 | 1:53:40 | +60:19 |
| 129329 | #18231 | Piyanee Tientamnoon & Simaporn ChanloyTHA · W 40-44 · AG #18231 | THA | W 40-44 | 1:53:40 | +60:19 |
| 129330 | #14025 | Charlize Kucma & Irene Alba KucmaW 35-39 · AG #14025 | -- | W 35-39 | 1:53:40 | +60:19 |
| 129331 | #19277 | Tymélia Ramine & Océane TheysFRA · W 25-29 · AG #19277 | FRA | W 25-29 | 1:53:40 | +60:19 |
| 129332 | #18232 | Ravibha Dent & Supanya KunakanTHA · W 40-44 · AG #18232 | THA | W 40-44 | 1:53:40 | +60:19 |
| 129333 | #19278 | Yasmeen Lunat & Tehjal RavgeeW 25-29 · AG #19278 | -- | W 25-29 | 1:53:40 | +60:19 |
| 129334 | #19279 | Mandii Tran & Phuong LyAUS · W 25-29 · AG #19279 | AUS | W 25-29 | 1:53:40 | +60:19 |
| 129335 | #18233 | Leandra Do Rosario & Filiz TatasNED · W 40-44 · AG #18233 | NED | W 40-44 | 1:53:40 | +60:19 |
| 129336 | #18234 | Filiz Tatas & Leandra Do RosarioNED · W 40-44 · AG #18234 | NED | W 40-44 | 1:53:40 | +60:19 |
| 129337 | #14026 | Lisa Lou Sabado & Aimee Ruth BertulfoPHI · W 35-39 · AG #14026 | PHI | W 35-39 | 1:53:41 | +60:20 |
| 129338 | #18235 | Julie MacDonald & Caroline BarrowmanGBR · W 40-44 · AG #18235 | GBR | W 40-44 | 1:53:41 | +60:20 |
| 129339 | #41001 | Tshegofatso Phetla & Atuweni SamwaRSA · W 30-34 · AG #41001 | RSA | W 30-34 | 1:53:41 | +60:20 |
| 129340 | #41002 | Maartje Van Der Zwaan & Jasmijn De JongNED · W 30-34 · AG #41002 | NED | W 30-34 | 1:53:41 | +60:20 |
| 129341 | #18236 | Jennifer Hulme & Emma HarrisonfletcherGBR · W 40-44 · AG #18236 | GBR | W 40-44 | 1:53:41 | +60:20 |
| 129342 | #41003 | Kaamni Adjodha & Manisha DewkiNED · W 30-34 · AG #41003 | NED | W 30-34 | 1:53:41 | +60:20 |
| 129343 | #402 | Andrea Spörlein & Friederike StrohbachGER · W 40-49 · AG #402 | GER | W 40-49 | 1:53:41 | +60:20 |
| 129344 | #18237 | Lindsay Brough & Nikki MortonGBR · W 40-44 · AG #18237 | GBR | W 40-44 | 1:53:41 | +60:20 |
| 129345 | #41004 | Suwatjanee Sakdasawit & Warunya PoungtongTHA · W 30-34 · AG #41004 | THA | W 30-34 | 1:53:41 | +60:20 |
| 129346 | #19280 | Nelumi Jayasundara & Win Lai LaiW 25-29 · AG #19280 | -- | W 25-29 | 1:53:41 | +60:20 |
| 129347 | #18238 | Esmeralda Guadalupe Ordaz Garcia & Patricia Abigail Almaraz ChávezMEX · W 40-44 · AG #18238 | MEX | W 40-44 | 1:53:42 | +60:21 |
| 129348 | #41005 | Sarah Mumma & Maggie MunroUSA · W 30-34 · AG #41005 | USA | W 30-34 | 1:53:42 | +60:21 |
| 129349 | #19281 | Ndivhu Nemanashe & Melby MhuruyengweW 25-29 · AG #19281 | -- | W 25-29 | 1:53:42 | +60:21 |
| 129350 | #41006 | Leanne Purcell & Katie BreenIRL · W 30-34 · AG #41006 | IRL | W 30-34 | 1:53:42 | +60:21 |
Pagina 5,174 di 5,500